sensor_id;sensor_type;location;lat;lon;timestamp;P1;durP1;ratioP1;P2;durP2;ratioP2
36995;SDS011;22905;50.340;10.776;2022-12-17T00:03:47;53.08;;;21.60;;
36995;SDS011;22905;50.340;10.776;2022-12-17T00:09:06;51.50;;;18.23;;
36995;SDS011;22905;50.340;10.776;2022-12-17T00:14:24;44.10;;;18.38;;
36995;SDS011;22905;50.340;10.776;2022-12-17T00:19:43;50.40;;;19.63;;
36995;SDS011;22905;50.340;10.776;2022-12-17T00:25:02;49.70;;;20.05;;
36995;SDS011;22905;50.340;10.776;2022-12-17T00:30:21;53.85;;;20.05;;
36995;SDS011;22905;50.340;10.776;2022-12-17T00:35:40;56.65;;;19.40;;
36995;SDS011;22905;50.340;10.776;2022-12-17T00:40:59;44.83;;;18.55;;
36995;SDS011;22905;50.340;10.776;2022-12-17T00:46:17;38.72;;;14.75;;
36995;SDS011;22905;50.340;10.776;2022-12-17T00:51:37;69.15;;;23.98;;
36995;SDS011;22905;50.340;10.776;2022-12-17T00:56:55;47.28;;;19.42;;
36995;SDS011;22905;50.340;10.776;2022-12-17T01:02:14;54.22;;;18.35;;
36995;SDS011;22905;50.340;10.776;2022-12-17T01:07:33;61.83;;;20.23;;
36995;SDS011;22905;50.340;10.776;2022-12-17T01:12:52;37.15;;;14.88;;
36995;SDS011;22905;50.340;10.776;2022-12-17T01:18:15;38.78;;;14.52;;
36995;SDS011;22905;50.340;10.776;2022-12-17T01:23:35;37.33;;;12.57;;
36995;SDS011;22905;50.340;10.776;2022-12-17T01:28:55;35.05;;;14.43;;
36995;SDS011;22905;50.340;10.776;2022-12-17T01:34:15;35.43;;;12.97;;
36995;SDS011;22905;50.340;10.776;2022-12-17T01:39:33;62.38;;;19.33;;
36995;SDS011;22905;50.340;10.776;2022-12-17T01:44:53;78.75;;;20.45;;
36995;SDS011;22905;50.340;10.776;2022-12-17T01:50:12;190.93;;;51.15;;
36995;SDS011;22905;50.340;10.776;2022-12-17T01:55:31;109.40;;;32.55;;
36995;SDS011;22905;50.340;10.776;2022-12-17T02:00:50;89.00;;;28.70;;
36995;SDS011;22905;50.340;10.776;2022-12-17T02:06:19;266.95;;;63.10;;
36995;SDS011;22905;50.340;10.776;2022-12-17T02:11:59;80.18;;;24.80;;
36995;SDS011;22905;50.340;10.776;2022-12-17T02:17:23;49.47;;;17.60;;
36995;SDS011;22905;50.340;10.776;2022-12-17T02:28:09;43.97;;;17.25;;
36995;SDS011;22905;50.340;10.776;2022-12-17T02:33:28;38.95;;;15.85;;
36995;SDS011;22905;50.340;10.776;2022-12-17T02:38:47;42.67;;;16.30;;
36995;SDS011;22905;50.340;10.776;2022-12-17T02:44:06;44.53;;;16.33;;
36995;SDS011;22905;50.340;10.776;2022-12-17T02:49:27;41.78;;;15.15;;
36995;SDS011;22905;50.340;10.776;2022-12-17T02:54:46;34.33;;;13.57;;
36995;SDS011;22905;50.340;10.776;2022-12-17T03:00:05;45.88;;;15.27;;
36995;SDS011;22905;50.340;10.776;2022-12-17T03:05:24;36.65;;;15.38;;
36995;SDS011;22905;50.340;10.776;2022-12-17T03:10:43;45.17;;;16.15;;
36995;SDS011;22905;50.340;10.776;2022-12-17T03:16:09;38.75;;;15.15;;
36995;SDS011;22905;50.340;10.776;2022-12-17T03:21:29;49.03;;;18.30;;
36995;SDS011;22905;50.340;10.776;2022-12-17T03:26:47;55.45;;;19.75;;
36995;SDS011;22905;50.340;10.776;2022-12-17T03:32:06;57.85;;;18.40;;
36995;SDS011;22905;50.340;10.776;2022-12-17T03:37:25;46.05;;;18.85;;
36995;SDS011;22905;50.340;10.776;2022-12-17T03:42:44;42.65;;;15.82;;
36995;SDS011;22905;50.340;10.776;2022-12-17T03:48:04;36.85;;;12.57;;
36995;SDS011;22905;50.340;10.776;2022-12-17T03:53:24;33.22;;;13.35;;
36995;SDS011;22905;50.340;10.776;2022-12-17T03:58:43;43.47;;;14.80;;
36995;SDS011;22905;50.340;10.776;2022-12-17T04:04:02;43.83;;;16.77;;
36995;SDS011;22905;50.340;10.776;2022-12-17T04:09:21;45.92;;;16.25;;
36995;SDS011;22905;50.340;10.776;2022-12-17T04:14:40;50.20;;;15.15;;
36995;SDS011;22905;50.340;10.776;2022-12-17T04:19:58;35.08;;;15.05;;
36995;SDS011;22905;50.340;10.776;2022-12-17T04:25:17;37.42;;;15.05;;
36995;SDS011;22905;50.340;10.776;2022-12-17T04:30:36;39.10;;;15.35;;
36995;SDS011;22905;50.340;10.776;2022-12-17T04:35:55;47.88;;;17.48;;
36995;SDS011;22905;50.340;10.776;2022-12-17T04:41:13;36.67;;;14.80;;
36995;SDS011;22905;50.340;10.776;2022-12-17T04:46:32;41.40;;;13.93;;
36995;SDS011;22905;50.340;10.776;2022-12-17T04:51:51;37.92;;;15.50;;
36995;SDS011;22905;50.340;10.776;2022-12-17T04:57:09;38.35;;;15.82;;
36995;SDS011;22905;50.340;10.776;2022-12-17T05:02:28;39.90;;;12.73;;
36995;SDS011;22905;50.340;10.776;2022-12-17T05:07:47;35.03;;;12.45;;
36995;SDS011;22905;50.340;10.776;2022-12-17T05:13:08;37.88;;;13.68;;
36995;SDS011;22905;50.340;10.776;2022-12-17T05:18:27;39.33;;;14.30;;
36995;SDS011;22905;50.340;10.776;2022-12-17T05:23:46;38.58;;;14.45;;
36995;SDS011;22905;50.340;10.776;2022-12-17T05:29:05;38.00;;;15.68;;
36995;SDS011;22905;50.340;10.776;2022-12-17T05:34:24;33.13;;;13.70;;
36995;SDS011;22905;50.340;10.776;2022-12-17T05:39:43;39.33;;;14.30;;
36995;SDS011;22905;50.340;10.776;2022-12-17T05:45:02;40.03;;;15.13;;
36995;SDS011;22905;50.340;10.776;2022-12-17T05:50:20;41.75;;;14.85;;
36995;SDS011;22905;50.340;10.776;2022-12-17T05:55:39;40.53;;;14.73;;
36995;SDS011;22905;50.340;10.776;2022-12-17T06:00:58;41.17;;;13.30;;
36995;SDS011;22905;50.340;10.776;2022-12-17T06:06:18;36.70;;;12.90;;
36995;SDS011;22905;50.340;10.776;2022-12-17T06:11:37;34.25;;;12.38;;
36995;SDS011;22905;50.340;10.776;2022-12-17T06:16:56;32.25;;;12.65;;
36995;SDS011;22905;50.340;10.776;2022-12-17T06:22:14;50.50;;;16.95;;
36995;SDS011;22905;50.340;10.776;2022-12-17T06:27:33;33.13;;;15.13;;
36995;SDS011;22905;50.340;10.776;2022-12-17T06:33:01;41.78;;;15.35;;
36995;SDS011;22905;50.340;10.776;2022-12-17T06:38:21;36.15;;;14.07;;
36995;SDS011;22905;50.340;10.776;2022-12-17T06:43:40;40.92;;;15.55;;
36995;SDS011;22905;50.340;10.776;2022-12-17T06:49:06;42.75;;;15.98;;
36995;SDS011;22905;50.340;10.776;2022-12-17T06:54:25;36.67;;;14.55;;
36995;SDS011;22905;50.340;10.776;2022-12-17T06:59:44;41.97;;;16.88;;
36995;SDS011;22905;50.340;10.776;2022-12-17T07:05:02;36.20;;;16.58;;
36995;SDS011;22905;50.340;10.776;2022-12-17T07:10:21;43.28;;;14.23;;
36995;SDS011;22905;50.340;10.776;2022-12-17T07:15:40;43.97;;;17.13;;
36995;SDS011;22905;50.340;10.776;2022-12-17T07:20:59;38.78;;;15.35;;
36995;SDS011;22905;50.340;10.776;2022-12-17T07:26:18;40.38;;;15.88;;
36995;SDS011;22905;50.340;10.776;2022-12-17T07:31:36;54.50;;;18.67;;
36995;SDS011;22905;50.340;10.776;2022-12-17T07:36:55;35.92;;;17.83;;
36995;SDS011;22905;50.340;10.776;2022-12-17T07:42:14;52.63;;;19.10;;
36995;SDS011;22905;50.340;10.776;2022-12-17T07:47:33;56.40;;;22.30;;
36995;SDS011;22905;50.340;10.776;2022-12-17T07:52:58;42.42;;;16.23;;
36995;SDS011;22905;50.340;10.776;2022-12-17T07:58:21;35.35;;;14.05;;
36995;SDS011;22905;50.340;10.776;2022-12-17T08:03:39;38.50;;;15.57;;
36995;SDS011;22905;50.340;10.776;2022-12-17T08:08:58;36.15;;;17.10;;
36995;SDS011;22905;50.340;10.776;2022-12-17T08:14:17;46.67;;;16.17;;
36995;SDS011;22905;50.340;10.776;2022-12-17T08:19:36;41.80;;;16.10;;
36995;SDS011;22905;50.340;10.776;2022-12-17T08:24:55;39.17;;;17.73;;
36995;SDS011;22905;50.340;10.776;2022-12-17T08:30:14;72.90;;;26.70;;
36995;SDS011;22905;50.340;10.776;2022-12-17T08:35:33;68.95;;;26.95;;
36995;SDS011;22905;50.340;10.776;2022-12-17T08:40:52;61.03;;;24.55;;
36995;SDS011;22905;50.340;10.776;2022-12-17T08:46:10;67.03;;;24.50;;
36995;SDS011;22905;50.340;10.776;2022-12-17T08:51:29;153.57;;;57.95;;
36995;SDS011;22905;50.340;10.776;2022-12-17T08:56:48;88.25;;;33.85;;
36995;SDS011;22905;50.340;10.776;2022-12-17T09:02:08;67.63;;;27.35;;
36995;SDS011;22905;50.340;10.776;2022-12-17T09:07:27;85.28;;;29.25;;
36995;SDS011;22905;50.340;10.776;2022-12-17T09:12:46;70.28;;;26.77;;
36995;SDS011;22905;50.340;10.776;2022-12-17T09:18:04;94.03;;;36.13;;
36995;SDS011;22905;50.340;10.776;2022-12-17T09:23:23;86.28;;;35.88;;
36995;SDS011;22905;50.340;10.776;2022-12-17T09:28:42;75.72;;;30.38;;
36995;SDS011;22905;50.340;10.776;2022-12-17T09:34:01;63.25;;;28.27;;
36995;SDS011;22905;50.340;10.776;2022-12-17T09:39:20;68.55;;;27.90;;
36995;SDS011;22905;50.340;10.776;2022-12-17T09:44:43;64.55;;;29.75;;
36995;SDS011;22905;50.340;10.776;2022-12-17T09:50:07;63.70;;;27.73;;
36995;SDS011;22905;50.340;10.776;2022-12-17T09:55:31;61.95;;;25.00;;
36995;SDS011;22905;50.340;10.776;2022-12-17T10:00:52;54.97;;;22.75;;
36995;SDS011;22905;50.340;10.776;2022-12-17T10:06:12;64.68;;;24.83;;
36995;SDS011;22905;50.340;10.776;2022-12-17T10:11:35;50.83;;;22.80;;
36995;SDS011;22905;50.340;10.776;2022-12-17T10:16:54;45.85;;;20.10;;
36995;SDS011;22905;50.340;10.776;2022-12-17T10:22:14;40.35;;;16.55;;
36995;SDS011;22905;50.340;10.776;2022-12-17T10:27:33;46.42;;;20.23;;
36995;SDS011;22905;50.340;10.776;2022-12-17T10:32:55;32.08;;;15.40;;
36995;SDS011;22905;50.340;10.776;2022-12-17T10:43:40;37.58;;;15.63;;
36995;SDS011;22905;50.340;10.776;2022-12-17T10:49:03;42.60;;;19.33;;
36995;SDS011;22905;50.340;10.776;2022-12-17T10:54:30;48.60;;;21.42;;
36995;SDS011;22905;50.340;10.776;2022-12-17T10:59:50;39.55;;;17.42;;
36995;SDS011;22905;50.340;10.776;2022-12-17T11:05:42;73.78;;;27.65;;
36995;SDS011;22905;50.340;10.776;2022-12-17T11:10:54;53.95;;;23.05;;
36995;SDS011;22905;50.340;10.776;2022-12-17T11:16:19;41.03;;;17.30;;
36995;SDS011;22905;50.340;10.776;2022-12-17T11:21:45;36.50;;;13.48;;
36995;SDS011;22905;50.340;10.776;2022-12-17T11:27:06;39.03;;;13.85;;
36995;SDS011;22905;50.340;10.776;2022-12-17T11:32:38;32.20;;;12.57;;
36995;SDS011;22905;50.340;10.776;2022-12-17T11:44:07;30.70;;;15.00;;
36995;SDS011;22905;50.340;10.776;2022-12-17T12:00:20;28.35;;;14.35;;
36995;SDS011;22905;50.340;10.776;2022-12-17T12:11:10;42.65;;;19.55;;
36995;SDS011;22905;50.340;10.776;2022-12-17T12:22:46;63.83;;;25.65;;
36995;SDS011;22905;50.340;10.776;2022-12-17T12:34:35;32.27;;;13.07;;
36995;SDS011;22905;50.340;10.776;2022-12-17T12:40:06;29.77;;;13.70;;
36995;SDS011;22905;50.340;10.776;2022-12-17T12:45:35;28.08;;;13.27;;
36995;SDS011;22905;50.340;10.776;2022-12-17T12:51:29;83.75;;;28.08;;
36995;SDS011;22905;50.340;10.776;2022-12-17T12:56:59;50.22;;;20.90;;
36995;SDS011;22905;50.340;10.776;2022-12-17T13:02:28;48.53;;;18.25;;
36995;SDS011;22905;50.340;10.776;2022-12-17T13:07:48;44.80;;;18.17;;
36995;SDS011;22905;50.340;10.776;2022-12-17T13:12:48;36.78;;;14.75;;
36995;SDS011;22905;50.340;10.776;2022-12-17T13:28:31;56.65;;;21.83;;
36995;SDS011;22905;50.340;10.776;2022-12-17T13:44:16;39.30;;;14.73;;
36995;SDS011;22905;50.340;10.776;2022-12-17T13:49:21;27.00;;;14.15;;
36995;SDS011;22905;50.340;10.776;2022-12-17T13:54:23;39.67;;;16.83;;
36995;SDS011;22905;50.340;10.776;2022-12-17T13:59:23;34.72;;;15.60;;
36995;SDS011;22905;50.340;10.776;2022-12-17T14:04:27;40.80;;;17.35;;
36995;SDS011;22905;50.340;10.776;2022-12-17T14:09:31;36.53;;;16.35;;
36995;SDS011;22905;50.340;10.776;2022-12-17T14:14:38;39.85;;;18.40;;
36995;SDS011;22905;50.340;10.776;2022-12-17T14:19:40;44.60;;;18.30;;
36995;SDS011;22905;50.340;10.776;2022-12-17T14:24:40;37.97;;;15.90;;
36995;SDS011;22905;50.340;10.776;2022-12-17T14:29:44;33.88;;;15.88;;
36995;SDS011;22905;50.340;10.776;2022-12-17T14:34:45;42.88;;;15.38;;
36995;SDS011;22905;50.340;10.776;2022-12-17T14:39:46;39.43;;;15.60;;
36995;SDS011;22905;50.340;10.776;2022-12-17T14:44:48;45.75;;;17.88;;
36995;SDS011;22905;50.340;10.776;2022-12-17T14:55:21;41.28;;;16.42;;
36995;SDS011;22905;50.340;10.776;2022-12-17T15:00:23;38.20;;;17.70;;
36995;SDS011;22905;50.340;10.776;2022-12-17T15:05:23;46.60;;;21.47;;
36995;SDS011;22905;50.340;10.776;2022-12-17T15:10:24;47.63;;;19.55;;
36995;SDS011;22905;50.340;10.776;2022-12-17T15:15:24;46.95;;;20.08;;
36995;SDS011;22905;50.340;10.776;2022-12-17T15:20:24;46.60;;;20.50;;
36995;SDS011;22905;50.340;10.776;2022-12-17T15:25:25;94.00;;;37.37;;
36995;SDS011;22905;50.340;10.776;2022-12-17T15:30:25;63.25;;;28.38;;
36995;SDS011;22905;50.340;10.776;2022-12-17T15:35:25;73.63;;;29.80;;
36995;SDS011;22905;50.340;10.776;2022-12-17T15:40:26;62.33;;;26.17;;
36995;SDS011;22905;50.340;10.776;2022-12-17T15:45:26;70.00;;;29.27;;
36995;SDS011;22905;50.340;10.776;2022-12-17T15:50:26;58.30;;;26.75;;
36995;SDS011;22905;50.340;10.776;2022-12-17T15:55:27;73.78;;;30.48;;
36995;SDS011;22905;50.340;10.776;2022-12-17T16:00:28;74.50;;;29.80;;
36995;SDS011;22905;50.340;10.776;2022-12-17T16:05:28;81.80;;;31.00;;
36995;SDS011;22905;50.340;10.776;2022-12-17T16:10:29;74.57;;;29.80;;
36995;SDS011;22905;50.340;10.776;2022-12-17T16:15:30;78.27;;;31.03;;
36995;SDS011;22905;50.340;10.776;2022-12-17T16:20:30;87.85;;;33.28;;
36995;SDS011;22905;50.340;10.776;2022-12-17T16:25:30;65.18;;;30.73;;
36995;SDS011;22905;50.340;10.776;2022-12-17T16:30:31;87.13;;;33.08;;
36995;SDS011;22905;50.340;10.776;2022-12-17T16:35:31;86.80;;;32.60;;
36995;SDS011;22905;50.340;10.776;2022-12-17T16:40:31;90.28;;;34.42;;
36995;SDS011;22905;50.340;10.776;2022-12-17T16:45:32;80.35;;;31.85;;
36995;SDS011;22905;50.340;10.776;2022-12-17T16:50:32;96.43;;;34.17;;
36995;SDS011;22905;50.340;10.776;2022-12-17T16:55:38;86.72;;;32.35;;
36995;SDS011;22905;50.340;10.776;2022-12-17T17:00:39;98.35;;;32.65;;
36995;SDS011;22905;50.340;10.776;2022-12-17T17:05:39;70.97;;;28.63;;
36995;SDS011;22905;50.340;10.776;2022-12-17T17:10:40;71.27;;;27.37;;
36995;SDS011;22905;50.340;10.776;2022-12-17T17:15:40;65.15;;;24.73;;
36995;SDS011;22905;50.340;10.776;2022-12-17T17:20:40;61.67;;;26.83;;
36995;SDS011;22905;50.340;10.776;2022-12-17T17:25:41;77.47;;;30.98;;
36995;SDS011;22905;50.340;10.776;2022-12-17T17:30:41;84.22;;;28.05;;
36995;SDS011;22905;50.340;10.776;2022-12-17T17:35:41;86.35;;;29.65;;
36995;SDS011;22905;50.340;10.776;2022-12-17T17:40:41;77.75;;;30.17;;
36995;SDS011;22905;50.340;10.776;2022-12-17T17:45:42;78.00;;;26.42;;
36995;SDS011;22905;50.340;10.776;2022-12-17T17:50:42;75.35;;;28.60;;
36995;SDS011;22905;50.340;10.776;2022-12-17T17:55:42;64.68;;;27.48;;
36995;SDS011;22905;50.340;10.776;2022-12-17T18:00:43;68.38;;;25.50;;
36995;SDS011;22905;50.340;10.776;2022-12-17T18:05:43;69.32;;;25.42;;
36995;SDS011;22905;50.340;10.776;2022-12-17T18:10:53;76.50;;;25.87;;
36995;SDS011;22905;50.340;10.776;2022-12-17T18:15:58;72.07;;;29.60;;
36995;SDS011;22905;50.340;10.776;2022-12-17T18:21:09;80.20;;;29.45;;
36995;SDS011;22905;50.340;10.776;2022-12-17T18:26:15;81.95;;;34.33;;
36995;SDS011;22905;50.340;10.776;2022-12-17T18:31:18;98.25;;;36.92;;
36995;SDS011;22905;50.340;10.776;2022-12-17T18:36:20;114.68;;;41.92;;
36995;SDS011;22905;50.340;10.776;2022-12-17T18:41:25;128.80;;;45.30;;
36995;SDS011;22905;50.340;10.776;2022-12-17T18:46:45;117.82;;;42.83;;
36995;SDS011;22905;50.340;10.776;2022-12-17T18:51:46;100.43;;;40.28;;
36995;SDS011;22905;50.340;10.776;2022-12-17T18:56:48;108.65;;;39.28;;
36995;SDS011;22905;50.340;10.776;2022-12-17T19:01:49;91.78;;;34.35;;
36995;SDS011;22905;50.340;10.776;2022-12-17T19:06:49;97.45;;;34.55;;
36995;SDS011;22905;50.340;10.776;2022-12-17T19:11:52;78.80;;;29.20;;
36995;SDS011;22905;50.340;10.776;2022-12-17T19:16:54;86.80;;;30.43;;
36995;SDS011;22905;50.340;10.776;2022-12-17T19:21:55;79.78;;;29.52;;
36995;SDS011;22905;50.340;10.776;2022-12-17T19:26:55;73.00;;;27.67;;
36995;SDS011;22905;50.340;10.776;2022-12-17T19:31:56;83.40;;;28.58;;
36995;SDS011;22905;50.340;10.776;2022-12-17T19:36:56;61.60;;;26.70;;
36995;SDS011;22905;50.340;10.776;2022-12-17T19:41:57;83.50;;;29.40;;
36995;SDS011;22905;50.340;10.776;2022-12-17T19:46:57;72.78;;;27.35;;
36995;SDS011;22905;50.340;10.776;2022-12-17T19:51:57;75.33;;;28.43;;
36995;SDS011;22905;50.340;10.776;2022-12-17T19:56:58;76.07;;;27.40;;
36995;SDS011;22905;50.340;10.776;2022-12-17T20:01:58;65.18;;;26.85;;
36995;SDS011;22905;50.340;10.776;2022-12-17T20:07:02;83.18;;;28.83;;
36995;SDS011;22905;50.340;10.776;2022-12-17T20:12:02;68.10;;;24.10;;
36995;SDS011;22905;50.340;10.776;2022-12-17T20:17:04;99.03;;;30.83;;
36995;SDS011;22905;50.340;10.776;2022-12-17T20:22:05;69.15;;;22.48;;
36995;SDS011;22905;50.340;10.776;2022-12-17T20:27:05;75.03;;;26.02;;
36995;SDS011;22905;50.340;10.776;2022-12-17T20:32:06;87.13;;;26.40;;
36995;SDS011;22905;50.340;10.776;2022-12-17T20:37:06;83.75;;;28.90;;
36995;SDS011;22905;50.340;10.776;2022-12-17T20:42:06;70.55;;;26.10;;
36995;SDS011;22905;50.340;10.776;2022-12-17T20:47:08;112.78;;;35.63;;
36995;SDS011;22905;50.340;10.776;2022-12-17T20:52:08;115.82;;;37.25;;
36995;SDS011;22905;50.340;10.776;2022-12-17T20:57:08;100.62;;;33.74;;
36995;SDS011;22905;50.340;10.776;2022-12-17T21:02:09;94.53;;;35.10;;
36995;SDS011;22905;50.340;10.776;2022-12-17T21:07:09;100.90;;;34.87;;
36995;SDS011;22905;50.340;10.776;2022-12-17T21:12:09;117.57;;;36.53;;
36995;SDS011;22905;50.340;10.776;2022-12-17T21:17:13;112.30;;;38.45;;
36995;SDS011;22905;50.340;10.776;2022-12-17T21:22:14;107.78;;;36.63;;
36995;SDS011;22905;50.340;10.776;2022-12-17T21:27:15;91.90;;;32.40;;
36995;SDS011;22905;50.340;10.776;2022-12-17T21:32:16;105.95;;;32.47;;
36995;SDS011;22905;50.340;10.776;2022-12-17T21:37:17;97.15;;;30.02;;
36995;SDS011;22905;50.340;10.776;2022-12-17T21:42:17;70.53;;;26.77;;
36995;SDS011;22905;50.340;10.776;2022-12-17T21:47:36;66.82;;;22.75;;
36995;SDS011;22905;50.340;10.776;2022-12-17T21:52:36;64.66;;;24.78;;
36995;SDS011;22905;50.340;10.776;2022-12-17T21:57:37;66.40;;;21.53;;
36995;SDS011;22905;50.340;10.776;2022-12-17T22:02:38;67.50;;;24.63;;
36995;SDS011;22905;50.340;10.776;2022-12-17T22:07:38;78.70;;;24.20;;
36995;SDS011;22905;50.340;10.776;2022-12-17T22:12:38;49.00;;;19.27;;
36995;SDS011;22905;50.340;10.776;2022-12-17T22:17:57;60.55;;;20.05;;
36995;SDS011;22905;50.340;10.776;2022-12-17T22:22:58;61.16;;;23.90;;
36995;SDS011;22905;50.340;10.776;2022-12-17T22:27:58;44.83;;;17.77;;
36995;SDS011;22905;50.340;10.776;2022-12-17T22:32:58;59.27;;;23.20;;
36995;SDS011;22905;50.340;10.776;2022-12-17T22:38:02;58.80;;;20.35;;
36995;SDS011;22905;50.340;10.776;2022-12-17T22:43:03;55.13;;;19.95;;
36995;SDS011;22905;50.340;10.776;2022-12-17T22:48:22;72.90;;;22.05;;
36995;SDS011;22905;50.340;10.776;2022-12-17T22:53:23;51.00;;;17.13;;
36995;SDS011;22905;50.340;10.776;2022-12-17T22:58:23;51.90;;;19.70;;
36995;SDS011;22905;50.340;10.776;2022-12-17T23:03:23;50.70;;;17.85;;
36995;SDS011;22905;50.340;10.776;2022-12-17T23:08:24;55.25;;;18.85;;
36995;SDS011;22905;50.340;10.776;2022-12-17T23:13:24;58.47;;;18.67;;
36995;SDS011;22905;50.340;10.776;2022-12-17T23:18:24;42.40;;;15.05;;
36995;SDS011;22905;50.340;10.776;2022-12-17T23:23:25;59.03;;;18.87;;
36995;SDS011;22905;50.340;10.776;2022-12-17T23:28:25;48.22;;;17.90;;
36995;SDS011;22905;50.340;10.776;2022-12-17T23:33:26;38.17;;;15.50;;
36995;SDS011;22905;50.340;10.776;2022-12-17T23:38:26;42.92;;;15.30;;
36995;SDS011;22905;50.340;10.776;2022-12-17T23:43:27;54.28;;;18.17;;
36995;SDS011;22905;50.340;10.776;2022-12-17T23:48:29;50.45;;;19.02;;
36995;SDS011;22905;50.340;10.776;2022-12-17T23:53:31;54.00;;;19.20;;
36995;SDS011;22905;50.340;10.776;2022-12-17T23:58:32;59.85;;;21.35;;
